createdAt,value
2022-10-22T00:00:58.396Z,13.11
2022-10-22T00:03:25.502Z,13.07
2022-10-22T00:05:52.718Z,13.03
2022-10-22T00:08:20.005Z,13.01
2022-10-22T00:10:47.113Z,12.99
2022-10-22T00:13:14.660Z,12.95
2022-10-22T00:15:41.960Z,12.93
2022-10-22T00:18:09.234Z,12.89
2022-10-22T00:20:36.317Z,12.89
2022-10-22T00:23:03.521Z,12.85
2022-10-22T00:25:31.274Z,12.82
2022-10-22T00:27:58.291Z,12.82
2022-10-22T00:30:25.490Z,12.82
2022-10-22T00:32:52.418Z,12.81
2022-10-22T00:35:19.500Z,12.80
2022-10-22T00:37:46.668Z,12.80
2022-10-22T00:40:14.258Z,12.78
2022-10-22T00:42:41.928Z,12.76
2022-10-22T00:45:12.262Z,12.79
2022-10-22T00:48:01.327Z,12.80
2022-10-22T00:50:35.008Z,12.79
2022-10-22T00:53:04.991Z,12.79
2022-10-22T00:55:33.299Z,12.80
2022-10-22T00:58:01.536Z,12.81
2022-10-22T01:00:28.960Z,12.81
2022-10-22T01:02:59.559Z,12.83
2022-10-22T01:05:33.341Z,12.85
2022-10-22T01:08:00.584Z,12.89
2022-10-22T01:10:48.650Z,12.91
2022-10-22T01:13:36.868Z,12.93
2022-10-22T01:16:14.963Z,12.94
2022-10-22T01:19:10.183Z,12.95
2022-10-22T01:21:46.131Z,12.97
2022-10-22T01:24:31.541Z,13.02
2022-10-22T01:27:04.493Z,13.02
2022-10-22T01:29:42.636Z,13.02
2022-10-22T01:32:17.044Z,13.02
2022-10-22T01:34:51.065Z,13.01
2022-10-22T01:37:20.725Z,13.01
2022-10-22T01:39:49.623Z,13.02
2022-10-22T01:42:16.926Z,13.01
2022-10-22T01:44:44.249Z,13.01
2022-10-22T01:47:31.820Z,12.99
2022-10-22T01:50:29.213Z,12.99
2022-10-22T01:53:15.316Z,12.99
2022-10-22T01:56:16.144Z,13.00
2022-10-22T01:58:52.898Z,12.99
2022-10-22T02:01:42.778Z,13.01
2022-10-22T02:04:38.930Z,13.01
2022-10-22T02:07:10.357Z,13.01
2022-10-22T02:09:40.258Z,13.02
2022-10-22T02:12:09.436Z,13.00
2022-10-22T02:14:41.267Z,13.00
2022-10-22T02:17:15.732Z,12.99
2022-10-22T02:20:01.651Z,12.97
2022-10-22T02:22:30.034Z,12.95
2022-10-22T02:24:57.357Z,12.95
2022-10-22T02:27:28.385Z,12.93
2022-10-22T02:30:12.768Z,12.93
2022-10-22T02:33:02.329Z,12.90
2022-10-22T02:35:30.399Z,12.89
2022-10-22T02:37:59.749Z,12.87
2022-10-22T02:40:30.280Z,12.85
2022-10-22T02:42:57.608Z,12.82
2022-10-22T02:45:25.213Z,12.78
2022-10-22T02:47:52.808Z,12.73
2022-10-22T02:50:19.979Z,12.72
2022-10-22T02:52:47.112Z,12.70
2022-10-22T02:55:14.515Z,12.67
2022-10-22T02:57:42.338Z,12.65
2022-10-22T03:00:11.281Z,12.64
2022-10-22T03:02:38.599Z,12.60
2022-10-22T03:05:06.907Z,12.59
2022-10-22T03:07:34.446Z,12.56
2022-10-22T03:10:01.472Z,12.57
2022-10-22T03:12:28.664Z,12.56
2022-10-22T03:14:55.786Z,12.55
2022-10-22T03:17:23.134Z,12.52
2022-10-22T03:19:50.360Z,12.51
2022-10-22T03:22:31.553Z,12.50
2022-10-22T03:25:04.610Z,12.49
2022-10-22T03:27:31.814Z,12.49
2022-10-22T03:29:59.672Z,12.50
2022-10-22T03:32:26.820Z,12.49
2022-10-22T03:34:53.919Z,12.49
2022-10-22T03:37:21.391Z,12.50
2022-10-22T03:39:48.524Z,12.54
2022-10-22T03:42:17.346Z,12.58
2022-10-22T03:44:44.478Z,12.65
2022-10-22T03:47:12.096Z,12.72
2022-10-22T03:49:39.323Z,12.78
2022-10-22T03:52:13.043Z,12.83
2022-10-22T03:54:42.210Z,12.86
2022-10-22T03:57:10.259Z,12.89
2022-10-22T03:59:41.060Z,12.95
2022-10-22T04:02:08.769Z,13.00
2022-10-22T04:04:36.998Z,13.03
2022-10-22T04:07:05.796Z,13.05
2022-10-22T04:09:34.422Z,13.09
2022-10-22T04:12:01.878Z,13.13
2022-10-22T04:14:28.918Z,13.17
2022-10-22T04:16:56.231Z,13.19
2022-10-22T04:19:23.323Z,13.21
2022-10-22T04:21:50.363Z,13.23
2022-10-22T04:24:17.371Z,13.24
2022-10-22T04:26:48.328Z,13.28
2022-10-22T04:29:16.435Z,13.29
2022-10-22T04:31:43.851Z,13.31
2022-10-22T04:34:11.089Z,13.33
2022-10-22T04:36:40.542Z,13.35
2022-10-22T04:39:09.229Z,13.37
2022-10-22T04:41:40.472Z,13.35
2022-10-22T04:44:11.143Z,13.36
2022-10-22T04:46:43.088Z,13.35
2022-10-22T04:49:10.434Z,13.41
2022-10-22T04:51:38.192Z,13.45
2022-10-22T04:54:06.963Z,13.46
2022-10-22T04:56:34.009Z,13.48
2022-10-22T04:59:07.218Z,13.50
2022-10-22T05:01:41.909Z,13.51
2022-10-22T05:04:17.226Z,13.50
2022-10-22T05:06:44.833Z,13.56
2022-10-22T05:09:18.536Z,13.59
2022-10-22T05:11:48.867Z,13.64
2022-10-22T05:14:25.120Z,13.68
2022-10-22T05:16:52.870Z,13.70
2022-10-22T05:19:30.066Z,13.75
2022-10-22T05:22:00.722Z,13.77
2022-10-22T05:24:30.082Z,13.80
2022-10-22T05:26:59.223Z,13.85
2022-10-22T05:29:27.583Z,13.87
2022-10-22T05:31:55.355Z,13.87
2022-10-22T05:34:22.757Z,13.89
2022-10-22T05:36:49.772Z,13.89
2022-10-22T05:39:17.064Z,13.91
2022-10-22T05:41:44.088Z,13.90
2022-10-22T05:44:13.056Z,13.90
2022-10-22T05:46:40.814Z,13.88
2022-10-22T05:49:08.354Z,13.86
2022-10-22T05:51:37.385Z,13.84
2022-10-22T05:54:07.728Z,13.85
2022-10-22T05:56:36.711Z,13.83
2022-10-22T05:59:05.068Z,13.82
2022-10-22T06:01:35.436Z,13.80
2022-10-22T06:04:08.160Z,13.79
2022-10-22T06:07:00.210Z,13.79
2022-10-22T06:12:10.938Z,13.76
2022-10-22T06:14:38.282Z,13.78
2022-10-22T06:17:05.307Z,13.76
2022-10-22T06:19:34.548Z,13.78
2022-10-22T06:22:01.815Z,13.77
2022-10-22T06:24:29.137Z,13.79
2022-10-22T06:26:56.513Z,13.80
2022-10-22T06:29:23.567Z,13.82
2022-10-22T06:31:50.671Z,13.82
2022-10-22T06:34:19.105Z,13.84
2022-10-22T06:36:47.315Z,13.90
2022-10-22T06:39:17.292Z,13.97
2022-10-22T06:41:44.893Z,14.07
2022-10-22T06:44:18.054Z,14.17
2022-10-22T06:46:45.223Z,14.23
2022-10-22T06:49:15.050Z,14.28
2022-10-22T06:51:42.542Z,14.32
2022-10-22T06:54:10.697Z,14.40
2022-10-22T06:56:37.885Z,14.45
2022-10-22T06:59:04.997Z,14.51
2022-10-22T07:01:35.432Z,14.51
2022-10-22T07:04:04.543Z,14.50
2022-10-22T07:06:32.363Z,14.51
2022-10-22T07:09:00.597Z,14.56
2022-10-22T07:11:39.702Z,14.63
2022-10-22T07:14:06.893Z,14.71
2022-10-22T07:16:34.040Z,14.80
2022-10-22T07:19:02.223Z,14.88
2022-10-22T07:21:31.639Z,14.94
2022-10-22T07:23:59.463Z,15.04
2022-10-22T07:26:30.888Z,15.13
2022-10-22T07:28:59.904Z,15.22
2022-10-22T07:31:27.170Z,15.29
2022-10-22T07:33:54.212Z,15.33
2022-10-22T07:36:21.347Z,15.34
2022-10-22T07:38:53.788Z,15.32
2022-10-22T07:41:20.887Z,15.30
2022-10-22T07:43:47.864Z,15.31
2022-10-22T07:46:14.908Z,15.34
2022-10-22T07:48:42.160Z,15.38
2022-10-22T07:51:09.810Z,15.36
2022-10-22T07:53:37.235Z,15.34
2022-10-22T07:56:04.639Z,15.37
2022-10-22T07:58:31.967Z,15.46
2022-10-22T08:01:01.648Z,15.60
2022-10-22T08:03:29.751Z,15.69
2022-10-22T08:05:56.997Z,15.73
2022-10-22T08:08:27.157Z,15.77
2022-10-22T08:10:59.332Z,15.90
2022-10-22T08:13:27.600Z,15.97
2022-10-22T08:15:57.388Z,16.11
2022-10-22T08:18:25.479Z,16.28
2022-10-22T08:20:53.151Z,16.39
2022-10-22T08:26:11.898Z,16.52
2022-10-22T08:28:39.260Z,16.59
2022-10-22T08:31:10.679Z,16.70
2022-10-22T08:33:39.064Z,16.74
2022-10-22T08:36:07.068Z,16.75
2022-10-22T08:38:35.298Z,16.82
2022-10-22T08:41:16.717Z,16.88
2022-10-22T08:44:14.457Z,16.92
2022-10-22T08:47:22.607Z,17.02
2022-10-22T08:49:50.327Z,17.12
2022-10-22T08:52:19.766Z,17.14
2022-10-22T08:55:01.920Z,17.15
2022-10-22T08:58:05.705Z,17.26
2022-10-22T09:00:46.312Z,17.54
2022-10-22T09:03:35.262Z,17.66
2022-10-22T09:06:14.465Z,17.78
2022-10-22T09:08:44.766Z,17.90
2022-10-22T09:11:30.299Z,18.00
2022-10-22T09:13:59.141Z,18.13
2022-10-22T09:17:20.989Z,18.33
2022-10-22T09:20:18.276Z,18.37
2022-10-22T09:23:01.876Z,18.26
2022-10-22T09:25:33.747Z,18.24
2022-10-22T09:28:00.793Z,18.26
2022-10-22T09:30:36.522Z,18.32
2022-10-22T09:33:21.318Z,18.43
2022-10-22T09:36:03.642Z,18.61
2022-10-22T09:38:34.511Z,18.74
2022-10-22T09:41:05.614Z,18.82
2022-10-22T09:43:33.675Z,18.79
2022-10-22T09:46:05.589Z,18.89
2022-10-22T09:48:41.289Z,19.00
2022-10-22T09:51:48.433Z,19.04
2022-10-22T09:54:19.673Z,19.16
2022-10-22T09:57:05.115Z,19.17
2022-10-22T09:59:38.779Z,19.25
2022-10-22T10:02:26.819Z,19.33
2022-10-22T10:05:06.343Z,19.40
2022-10-22T10:07:36.247Z,19.53
2022-10-22T10:10:17.634Z,19.67
2022-10-22T10:13:16.550Z,19.74
2022-10-22T10:16:17.304Z,19.75
2022-10-22T10:19:10.722Z,19.78
2022-10-22T10:21:55.931Z,19.78
2022-10-22T10:25:26.280Z,19.73
2022-10-22T10:28:14.474Z,19.70
2022-10-22T10:31:17.492Z,19.73
2022-10-22T10:33:50.178Z,19.71
2022-10-22T10:36:48.936Z,19.63
2022-10-22T10:39:54.857Z,19.52
2022-10-22T10:42:37.729Z,19.46
2022-10-22T10:45:17.265Z,19.43
2022-10-22T10:48:11.887Z,19.53
2022-10-22T10:51:19.299Z,19.65
2022-10-22T10:54:09.531Z,19.58
2022-10-22T10:56:56.005Z,19.54
2022-10-22T11:00:02.411Z,19.63
2022-10-22T11:03:30.218Z,20.04
2022-10-22T11:06:23.035Z,20.15
2022-10-22T11:09:06.717Z,20.11
2022-10-22T11:11:50.393Z,20.28
2022-10-22T11:14:37.905Z,20.23
2022-10-22T11:17:16.003Z,20.03
2022-10-22T11:20:00.250Z,19.94
2022-10-22T11:23:19.605Z,19.97
2022-10-22T11:25:50.215Z,20.13
2022-10-22T11:28:37.293Z,20.17
2022-10-22T11:31:27.550Z,20.04
2022-10-22T11:34:34.498Z,19.93
2022-10-22T11:37:04.958Z,19.95
2022-10-22T11:39:52.241Z,20.05
2022-10-22T11:42:23.707Z,20.15
2022-10-22T11:45:03.190Z,20.55
2022-10-22T11:47:56.651Z,20.65
2022-10-22T11:50:28.914Z,20.56
2022-10-22T11:53:16.998Z,20.64
2022-10-22T11:55:51.681Z,20.88
2022-10-22T11:58:39.445Z,21.15
2022-10-22T12:01:09.489Z,21.35
2022-10-22T12:03:48.924Z,21.54
2022-10-22T12:06:15.896Z,21.45
2022-10-22T12:08:50.495Z,21.31
2022-10-22T12:11:27.603Z,21.07
2022-10-22T12:14:29.039Z,20.91
2022-10-22T12:17:14.916Z,20.67
2022-10-22T12:19:50.150Z,20.63
2022-10-22T12:22:33.305Z,20.65
2022-10-22T12:25:07.667Z,20.49
2022-10-22T12:27:38.693Z,20.39
2022-10-22T12:30:29.704Z,20.45
2022-10-22T12:33:02.766Z,20.61
2022-10-22T12:35:45.848Z,20.78
2022-10-22T12:38:20.486Z,20.83
2022-10-22T12:40:50.298Z,20.96
2022-10-22T12:43:24.340Z,21.25
2022-10-22T12:45:51.818Z,21.21
2022-10-22T12:48:40.038Z,21.36
2022-10-22T12:51:10.151Z,21.29
2022-10-22T12:53:56.631Z,21.18
2022-10-22T12:56:28.775Z,21.21
2022-10-22T12:59:01.738Z,21.33
2022-10-22T13:01:36.774Z,21.25
2022-10-22T13:04:13.024Z,21.09
2022-10-22T13:06:46.814Z,21.02
2022-10-22T13:09:26.813Z,20.92
2022-10-22T13:12:05.665Z,20.82
2022-10-22T13:14:36.080Z,20.71
2022-10-22T13:17:21.187Z,20.65
2022-10-22T13:19:54.265Z,20.59
2022-10-22T13:22:40.018Z,20.48
2022-10-22T13:25:16.140Z,20.49
2022-10-22T13:27:59.002Z,20.50
2022-10-22T13:30:36.583Z,20.43
2022-10-22T13:33:07.903Z,20.42
2022-10-22T13:35:38.306Z,20.43
2022-10-22T13:38:27.326Z,20.59
2022-10-22T13:40:55.901Z,20.48
2022-10-22T13:43:24.025Z,20.43
2022-10-22T13:45:57.482Z,20.51
2022-10-22T13:48:26.404Z,20.49
2022-10-22T13:50:57.141Z,20.48
2022-10-22T13:53:30.340Z,20.46
2022-10-22T13:55:58.083Z,20.44
2022-10-22T13:58:25.429Z,20.26
2022-10-22T14:00:59.715Z,20.09
2022-10-22T14:03:37.698Z,19.78
2022-10-22T14:06:13.832Z,20.01
2022-10-22T14:08:43.112Z,19.99
2022-10-22T14:11:12.783Z,19.91
2022-10-22T14:13:40.341Z,19.84
2022-10-22T14:16:22.994Z,19.85
2022-10-22T14:18:51.245Z,20.00
2022-10-22T14:21:19.808Z,20.13
2022-10-22T14:23:48.626Z,20.30
2022-10-22T14:26:30.295Z,20.44
2022-10-22T14:29:09.382Z,20.49
2022-10-22T14:31:43.643Z,20.54
2022-10-22T14:34:14.782Z,20.63
2022-10-22T14:36:43.956Z,20.71
2022-10-22T14:39:13.101Z,20.79
2022-10-22T14:41:41.255Z,20.86
2022-10-22T14:44:13.994Z,20.84
2022-10-22T14:46:43.939Z,20.80
2022-10-22T14:49:11.148Z,20.68
2022-10-22T14:51:38.856Z,20.54
2022-10-22T14:54:06.285Z,20.41
2022-10-22T14:56:33.651Z,20.30
2022-10-22T14:59:00.978Z,20.28
2022-10-22T15:01:28.068Z,20.30
2022-10-22T15:03:55.024Z,20.20
2022-10-22T15:06:22.065Z,20.06
2022-10-22T15:08:49.239Z,20.00
2022-10-22T15:11:16.730Z,19.99
2022-10-22T15:13:44.017Z,19.98
2022-10-22T15:16:14.858Z,19.99
2022-10-22T15:18:42.203Z,19.98
2022-10-22T15:21:18.985Z,19.91
2022-10-22T15:23:46.567Z,19.89
2022-10-22T15:26:14.619Z,19.90
2022-10-22T15:28:42.641Z,19.79
2022-10-22T15:31:14.848Z,19.64
2022-10-22T15:33:45.523Z,19.49
2022-10-22T15:36:16.326Z,19.37
2022-10-22T15:38:44.032Z,19.25
2022-10-22T15:41:12.639Z,19.15
2022-10-22T15:43:40.112Z,19.04
2022-10-22T15:46:17.805Z,18.93
2022-10-22T15:48:45.701Z,18.79
2022-10-22T15:51:15.847Z,18.69
2022-10-22T15:53:44.067Z,18.61
2022-10-22T15:56:12.146Z,18.52
2022-10-22T15:58:39.739Z,18.41
2022-10-22T16:01:11.170Z,18.27
2022-10-22T16:03:39.124Z,18.07
2022-10-22T16:06:09.175Z,17.98
2022-10-22T16:08:37.883Z,17.98
2022-10-22T16:11:05.865Z,17.90
2022-10-22T16:13:33.023Z,17.81
2022-10-22T16:16:07.090Z,17.71
2022-10-22T16:18:34.435Z,17.60
2022-10-22T16:21:01.728Z,17.49
2022-10-22T16:23:29.120Z,17.39
2022-10-22T16:25:57.568Z,17.28
2022-10-22T16:28:24.649Z,17.19
2022-10-22T16:30:51.689Z,17.10
2022-10-22T16:33:19.063Z,17.02
2022-10-22T16:35:48.178Z,16.94
2022-10-22T16:38:15.263Z,16.88
2022-10-22T16:40:42.344Z,16.80
2022-10-22T16:43:09.467Z,16.73
2022-10-22T16:45:38.075Z,16.64
2022-10-22T16:48:05.260Z,16.56
2022-10-22T16:50:32.517Z,16.50
2022-10-22T16:52:59.747Z,16.43
2022-10-22T16:55:26.998Z,16.38
2022-10-22T16:57:54.437Z,16.31
2022-10-22T17:00:22.024Z,16.26
2022-10-22T17:02:53.722Z,16.19
2022-10-22T17:05:21.789Z,16.13
2022-10-22T17:07:49.794Z,16.08
2022-10-22T17:10:19.789Z,16.02
2022-10-22T17:12:48.504Z,15.98
2022-10-22T17:15:15.990Z,15.92
2022-10-22T17:17:43.543Z,15.87
2022-10-22T17:20:11.961Z,15.81
2022-10-22T17:22:39.415Z,15.75
2022-10-22T17:25:22.743Z,15.69
2022-10-22T17:27:50.775Z,15.65
2022-10-22T17:30:23.438Z,15.61
2022-10-22T17:32:54.841Z,15.55
2022-10-22T17:35:21.889Z,15.48
2022-10-22T17:37:49.116Z,15.43
2022-10-22T17:40:16.633Z,15.40
2022-10-22T17:42:45.456Z,15.34
2022-10-22T17:45:12.680Z,15.31
2022-10-22T17:47:39.868Z,15.29
2022-10-22T17:50:08.088Z,15.27
2022-10-22T17:52:36.903Z,15.21
2022-10-22T17:55:04.894Z,15.17
2022-10-22T17:57:32.154Z,15.14
2022-10-22T17:59:59.200Z,15.07
2022-10-22T18:02:26.481Z,15.08
2022-10-22T18:04:53.731Z,14.97
2022-10-22T18:07:21.983Z,14.92
2022-10-22T18:09:49.212Z,14.88
2022-10-22T18:12:18.071Z,14.89
2022-10-22T18:14:47.159Z,14.85
2022-10-22T18:19:48.582Z,14.79
2022-10-22T18:22:15.998Z,14.77
2022-10-22T18:24:43.358Z,14.73
2022-10-22T18:27:10.509Z,14.72
2022-10-22T18:29:37.624Z,14.69
2022-10-22T18:32:12.114Z,14.68
2022-10-22T18:34:40.199Z,14.65
2022-10-22T18:37:07.416Z,14.63
2022-10-22T18:39:35.554Z,14.62
2022-10-22T18:42:06.314Z,14.62
2022-10-22T18:44:35.684Z,14.58
2022-10-22T18:47:03.028Z,14.55
2022-10-22T18:49:32.505Z,14.54
2022-10-22T18:51:59.926Z,14.52
2022-10-22T18:54:27.326Z,14.50
2022-10-22T18:57:00.506Z,14.49
2022-10-22T18:59:29.347Z,14.46
2022-10-22T19:02:00.390Z,14.46
2022-10-22T19:04:36.652Z,14.43
2022-10-22T19:09:34.940Z,14.48
2022-10-22T19:12:02.646Z,14.46
2022-10-22T19:14:29.911Z,14.45
2022-10-22T19:16:56.891Z,14.44
2022-10-22T19:19:24.561Z,14.43
2022-10-22T19:21:52.281Z,14.42
2022-10-22T19:24:20.473Z,14.34
2022-10-22T19:26:49.403Z,14.34
2022-10-22T19:29:19.782Z,14.33
2022-10-22T19:31:50.522Z,14.32
2022-10-22T19:34:17.826Z,14.29
2022-10-22T19:36:45.329Z,14.29
2022-10-22T19:39:16.670Z,14.27
2022-10-22T19:41:43.856Z,14.24
2022-10-22T19:44:11.495Z,14.23
2022-10-22T19:46:38.855Z,14.21
2022-10-22T19:49:06.070Z,14.19
2022-10-22T19:51:34.681Z,14.18
2022-10-22T19:54:06.090Z,14.18
2022-10-22T19:56:36.357Z,14.15
2022-10-22T19:59:05.222Z,14.17
2022-10-22T20:01:32.703Z,14.17
2022-10-22T20:04:01.805Z,14.13
2022-10-22T20:06:29.791Z,14.17
2022-10-22T20:08:57.866Z,14.15
2022-10-22T20:11:28.306Z,14.12
2022-10-22T20:13:57.240Z,14.14
2022-10-22T20:16:29.733Z,14.12
2022-10-22T20:19:02.053Z,14.12
2022-10-22T20:21:29.731Z,14.10
2022-10-22T20:23:57.681Z,14.12
2022-10-22T20:26:28.125Z,14.09
2022-10-22T20:28:57.243Z,14.11
2022-10-22T20:31:28.066Z,14.12
2022-10-22T20:33:58.502Z,14.13
2022-10-22T20:36:26.901Z,14.15
2022-10-22T20:39:06.173Z,14.16
2022-10-22T20:41:35.687Z,14.17
2022-10-22T20:44:02.680Z,14.17
2022-10-22T20:46:32.282Z,14.17
2022-10-22T20:49:07.166Z,14.15
2022-10-22T20:51:36.218Z,14.15
2022-10-22T20:54:05.293Z,14.14
2022-10-22T20:56:33.651Z,14.15
2022-10-22T20:59:04.414Z,14.19
2022-10-22T21:01:47.453Z,14.19
2022-10-22T21:04:15.341Z,14.17
2022-10-22T21:06:43.116Z,14.17
2022-10-22T21:09:13.833Z,14.16
2022-10-22T21:11:42.891Z,14.14
2022-10-22T21:14:12.079Z,14.11
2022-10-22T21:16:45.775Z,14.08
2022-10-22T21:19:13.138Z,14.05
2022-10-22T21:21:40.556Z,14.03
2022-10-22T21:24:08.754Z,14.04
2022-10-22T21:26:40.953Z,14.03
2022-10-22T21:29:09.427Z,14.04
2022-10-22T21:31:37.097Z,14.04
2022-10-22T21:34:04.230Z,14.04
2022-10-22T21:36:31.399Z,14.06
2022-10-22T21:38:58.394Z,14.07
2022-10-22T21:41:25.519Z,14.07
2022-10-22T21:43:52.867Z,14.09
2022-10-22T21:46:27.177Z,14.09
2022-10-22T21:49:02.031Z,14.09
2022-10-22T21:51:32.319Z,14.11
2022-10-22T21:53:59.941Z,14.11
2022-10-22T21:56:34.915Z,14.12
2022-10-22T21:59:04.392Z,14.11
2022-10-22T22:01:31.985Z,14.13
2022-10-22T22:03:59.959Z,14.13
2022-10-22T22:06:32.079Z,14.12
2022-10-22T22:09:00.795Z,14.14
2022-10-22T22:11:29.137Z,14.13
2022-10-22T22:13:58.078Z,14.12
2022-10-22T22:16:29.373Z,14.11
2022-10-22T22:18:59.576Z,14.09
2022-10-22T22:21:27.362Z,14.08
2022-10-22T22:23:55.106Z,14.07
2022-10-22T22:26:28.293Z,14.05
2022-10-22T22:29:00.531Z,14.05
2022-10-22T22:31:31.429Z,14.03
2022-10-22T22:34:14.350Z,14.02
2022-10-22T22:36:47.349Z,14.01
2022-10-22T22:39:22.555Z,14.02
2022-10-22T22:41:50.098Z,14.01
2022-10-22T22:44:17.529Z,14.00
2022-10-22T22:46:44.901Z,13.99
2022-10-22T22:49:13.338Z,13.98
2022-10-22T22:51:40.504Z,13.96
2022-10-22T22:54:07.672Z,13.95
2022-10-22T22:56:34.873Z,13.95
2022-10-22T22:59:03.782Z,13.97
2022-10-22T23:01:34.496Z,13.96
2022-10-22T23:04:16.258Z,13.96
2022-10-22T23:06:43.595Z,13.93
2022-10-22T23:09:13.693Z,13.92
2022-10-22T23:11:43.907Z,13.88
2022-10-22T23:14:14.714Z,13.83
2022-10-22T23:16:48.823Z,13.80
2022-10-22T23:19:19.876Z,13.76
2022-10-22T23:21:51.064Z,13.72
2022-10-22T23:24:22.275Z,13.69
2022-10-22T23:26:52.083Z,13.68
2022-10-22T23:29:23.310Z,13.63
2022-10-22T23:31:51.185Z,13.63
2022-10-22T23:34:24.383Z,13.61
2022-10-22T23:36:52.557Z,13.59
2022-10-22T23:39:23.487Z,13.57
2022-10-22T23:41:53.094Z,13.56
2022-10-22T23:44:21.886Z,13.53
2022-10-22T23:46:49.390Z,13.52
2022-10-22T23:49:17.610Z,13.50
2022-10-22T23:51:44.747Z,13.49
2022-10-22T23:54:16.048Z,13.49
2022-10-22T23:56:43.417Z,13.47
2022-10-22T23:59:11.293Z,13.49
